createdAt,value
2022-08-05T00:01:36.522Z,101040.78
2022-08-05T00:04:18.164Z,101041.84
2022-08-05T00:06:46.944Z,101036.69
2022-08-05T00:09:15.830Z,101033.31
2022-08-05T00:11:55.711Z,101038.09
2022-08-05T00:14:27.467Z,101057.19
2022-08-05T00:16:57.600Z,101064.72
2022-08-05T00:19:33.512Z,101060.63
2022-08-05T00:22:11.083Z,101066.03
2022-08-05T00:24:42.172Z,101063.34
2022-08-05T00:27:16.565Z,101060.88
2022-08-05T00:29:45.083Z,101052.78
2022-08-05T00:32:15.051Z,101061.88
2022-08-05T00:35:04.095Z,101071.44
2022-08-05T00:37:50.775Z,101077.09
2022-08-05T00:40:27.930Z,101070.03
2022-08-05T00:42:59.766Z,101071.16
2022-08-05T00:45:38.325Z,101076.19
2022-08-05T00:48:09.352Z,101054.69
2022-08-05T00:50:38.897Z,101085.41
2022-08-05T00:54:00.971Z,101091.56
2022-08-05T00:55:58.510Z,101097.22
2022-08-05T00:58:27.903Z,101092.09
2022-08-05T01:00:56.387Z,101085.03
2022-08-05T01:03:33.301Z,101090.50
2022-08-05T01:06:03.962Z,101086.94
2022-08-05T01:08:43.287Z,101069.81
2022-08-05T01:11:22.535Z,101061.00
2022-08-05T01:14:08.719Z,101073.56
2022-08-05T01:16:44.514Z,101093.28
2022-08-05T01:19:36.524Z,101075.53
2022-08-05T01:22:28.135Z,101069.88
2022-08-05T01:25:40.637Z,101083.03
2022-08-05T01:28:27.173Z,101061.28
2022-08-05T01:31:00.507Z,101057.75
2022-08-05T01:33:36.185Z,101047.81
2022-08-05T01:36:12.932Z,101036.84
2022-08-05T01:38:46.731Z,101038.31
2022-08-05T01:41:22.087Z,101026.91
2022-08-05T01:43:52.498Z,101013.00
2022-08-05T01:46:42.868Z,100992.19
2022-08-05T01:49:23.949Z,101004.28
2022-08-05T01:51:58.374Z,101005.25
2022-08-05T01:54:31.510Z,100998.19
2022-08-05T01:58:10.811Z,100994.03
2022-08-05T01:59:53.791Z,100973.91
2022-08-05T02:02:26.255Z,100957.28
2022-08-05T02:05:03.131Z,100961.28
2022-08-05T02:07:32.361Z,100959.13
2022-08-05T02:10:03.487Z,100947.34
2022-08-05T02:12:38.227Z,100934.41
2022-08-05T02:15:12.475Z,100925.75
2022-08-05T02:18:28.204Z,100929.63
2022-08-05T02:20:44.200Z,100939.28
2022-08-05T02:23:17.000Z,100938.41
2022-08-05T02:25:49.092Z,100947.72
2022-08-05T02:28:28.833Z,100945.88
2022-08-05T02:31:07.497Z,100930.69
2022-08-05T02:33:40.636Z,100904.28
2022-08-05T02:36:13.755Z,100906.59
2022-08-05T02:38:53.366Z,100899.53
2022-08-05T02:41:28.801Z,100894.72
2022-08-05T02:44:13.203Z,100905.59
2022-08-05T02:46:58.880Z,100897.25
2022-08-05T02:49:36.784Z,100895.44
2022-08-05T02:52:08.979Z,100931.19
2022-08-05T02:54:41.283Z,101030.63
2022-08-05T02:58:10.788Z,101062.69
2022-08-05T03:00:02.522Z,101049.03
2022-08-05T03:02:37.421Z,101029.53
2022-08-05T03:05:08.689Z,101041.19
2022-08-05T03:08:00.893Z,101033.50
2022-08-05T03:10:27.865Z,101014.47
2022-08-05T03:15:24.463Z,100998.44
2022-08-05T03:17:57.640Z,100986.53
2022-08-05T03:20:26.454Z,101000.09
2022-08-05T03:22:57.226Z,100988.03
2022-08-05T03:25:33.666Z,101009.50
2022-08-05T03:28:18.875Z,101016.94
2022-08-05T03:30:49.422Z,101021.41
2022-08-05T03:33:19.323Z,101013.56
2022-08-05T03:35:48.248Z,101012.31
2022-08-05T03:38:24.018Z,101012.91
2022-08-05T03:41:08.172Z,101014.19
2022-08-05T03:44:09.202Z,101001.63
2022-08-05T03:46:29.816Z,100991.78
2022-08-05T03:49:01.994Z,100991.88
2022-08-05T03:52:38.841Z,100992.03
2022-08-05T03:55:52.939Z,100987.75
2022-08-05T03:57:42.323Z,100978.84
2022-08-05T04:00:15.941Z,100974.91
2022-08-05T04:02:57.943Z,100984.97
2022-08-05T04:05:33.435Z,100981.34
2022-08-05T04:08:03.637Z,100967.72
2022-08-05T04:10:38.148Z,100970.91
2022-08-05T04:13:08.299Z,100978.47
2022-08-05T04:15:36.862Z,100972.28
2022-08-05T04:18:07.280Z,100969.97
2022-08-05T04:20:41.165Z,100983.63
2022-08-05T04:23:12.661Z,100981.00
2022-08-05T04:25:57.295Z,100990.38
2022-08-05T04:28:30.804Z,101009.47
2022-08-05T04:31:01.107Z,101007.06
2022-08-05T04:33:54.876Z,101006.13
2022-08-05T04:36:44.622Z,101024.97
2022-08-05T04:39:07.798Z,101018.81
2022-08-05T04:41:36.707Z,101021.41
2022-08-05T04:44:08.952Z,101010.16
2022-08-05T04:46:38.644Z,101026.63
2022-08-05T04:49:12.151Z,101034.72
2022-08-05T04:51:45.186Z,101045.50
2022-08-05T04:54:14.666Z,101040.09
2022-08-05T04:56:43.623Z,101036.31
2022-08-05T04:59:21.854Z,101049.53
2022-08-05T05:02:37.701Z,101066.25
2022-08-05T05:04:50.479Z,101082.41
2022-08-05T05:07:23.862Z,101091.44
2022-08-05T05:09:57.562Z,101088.16
2022-08-05T05:12:27.429Z,101077.97
2022-08-05T05:14:55.801Z,101065.13
2022-08-05T05:17:55.728Z,101061.41
2022-08-05T05:20:13.746Z,101066.72
2022-08-05T05:22:44.130Z,101081.84
2022-08-05T05:25:16.897Z,101073.69
2022-08-05T05:27:53.611Z,101077.34
2022-08-05T05:30:30.841Z,101076.22
2022-08-05T05:33:13.854Z,101064.34
2022-08-05T05:35:47.474Z,101074.03
2022-08-05T05:38:22.221Z,101081.69
2022-08-05T05:40:55.053Z,101087.81
2022-08-05T05:43:57.360Z,101077.81
2022-08-05T05:46:17.333Z,101077.72
2022-08-05T05:48:48.213Z,101072.00
2022-08-05T05:51:21.855Z,101055.75
2022-08-05T05:53:57.260Z,101059.53
2022-08-05T05:56:33.003Z,101059.84
2022-08-05T05:59:05.608Z,101076.50
2022-08-05T06:01:38.010Z,101062.16
2022-08-05T06:04:11.312Z,101063.28
2022-08-05T06:06:41.961Z,101077.47
2022-08-05T06:09:17.637Z,101089.19
2022-08-05T06:12:02.006Z,101093.63
2022-08-05T06:14:31.039Z,101101.56
2022-08-05T06:17:01.873Z,101110.19
2022-08-05T06:19:34.579Z,101106.13
2022-08-05T06:22:04.553Z,101113.03
2022-08-05T06:24:37.290Z,101111.22
2022-08-05T06:27:05.946Z,101097.66
2022-08-05T06:29:53.401Z,101098.44
2022-08-05T06:32:34.139Z,101095.00
2022-08-05T06:35:06.166Z,101091.03
2022-08-05T06:37:57.846Z,101077.97
2022-08-05T06:40:32.395Z,101065.88
2022-08-05T06:43:01.010Z,101067.06
2022-08-05T06:45:44.853Z,101079.84
2022-08-05T06:48:50.345Z,101087.44
2022-08-05T06:51:09.565Z,101079.78
2022-08-05T06:53:39.113Z,101079.00
2022-08-05T06:56:11.684Z,101100.78
2022-08-05T06:58:54.325Z,101108.09
2022-08-05T07:01:22.907Z,101106.78
2022-08-05T07:03:51.168Z,101116.81
2022-08-05T07:06:20.670Z,101124.38
2022-08-05T07:08:51.653Z,101123.31
2022-08-05T07:11:25.523Z,101113.28
2022-08-05T07:14:20.569Z,101107.31
2022-08-05T07:17:58.982Z,101112.16
2022-08-05T07:20:32.311Z,101116.00
2022-08-05T07:22:38.656Z,101098.59
2022-08-05T07:25:22.995Z,101088.16
2022-08-05T07:28:05.392Z,101094.13
2022-08-05T07:30:38.816Z,101098.31
2022-08-05T07:33:10.564Z,101101.00
2022-08-05T07:36:03.736Z,101114.06
2022-08-05T07:38:35.382Z,101105.53
2022-08-05T07:42:08.234Z,101104.50
2022-08-05T07:44:14.078Z,101109.19
2022-08-05T07:46:48.645Z,101114.72
2022-08-05T07:49:18.651Z,101104.16
2022-08-05T07:51:53.405Z,101096.06
2022-08-05T07:54:31.286Z,101096.41
2022-08-05T07:57:17.644Z,101095.47
2022-08-05T07:59:52.357Z,101105.22
2022-08-05T08:02:30.921Z,101101.75
2022-08-05T08:05:14.690Z,101115.78
2022-08-05T08:07:59.817Z,101118.03
2022-08-05T08:10:29.251Z,101115.94
2022-08-05T08:12:58.775Z,101108.88
2022-08-05T08:16:33.404Z,101125.19
2022-08-05T08:18:20.770Z,101134.75
2022-08-05T08:21:03.180Z,101126.03
2022-08-05T08:24:02.441Z,101110.78
2022-08-05T08:26:26.947Z,101103.22
2022-08-05T08:28:59.713Z,101115.25
2022-08-05T08:31:39.174Z,101103.75
2022-08-05T08:34:09.748Z,101105.84
2022-08-05T08:36:52.414Z,101107.75
2022-08-05T08:39:24.824Z,101102.78
2022-08-05T08:41:59.781Z,101112.59
2022-08-05T08:45:20.552Z,101116.72
2022-08-05T08:48:06.003Z,101119.97
2022-08-05T08:50:31.930Z,101118.03
2022-08-05T08:53:08.052Z,101113.44
2022-08-05T08:56:04.083Z,101111.84
2022-08-05T08:58:37.040Z,101122.03
2022-08-05T09:01:16.612Z,101126.31
2022-08-05T09:03:55.283Z,101138.22
2022-08-05T09:06:29.657Z,101131.25
2022-08-05T09:09:00.528Z,101129.59
2022-08-05T09:11:53.485Z,101136.75
2022-08-05T09:14:57.192Z,101137.09
2022-08-05T09:17:08.191Z,101148.44
2022-08-05T09:20:01.863Z,101152.81
2022-08-05T09:22:32.080Z,101159.06
2022-08-05T09:25:24.035Z,101159.09
2022-08-05T09:28:04.212Z,101171.03
2022-08-05T09:30:35.162Z,101179.63
2022-08-05T09:33:05.762Z,101173.44
2022-08-05T09:35:35.507Z,101163.97
2022-08-05T09:38:17.146Z,101171.13
2022-08-05T09:40:53.533Z,101176.81
2022-08-05T09:43:40.244Z,101170.47
2022-08-05T09:46:27.990Z,101178.91
2022-08-05T09:49:08.319Z,101168.16
2022-08-05T09:51:49.343Z,101170.53
2022-08-05T09:54:21.141Z,101171.25
2022-08-05T09:57:01.696Z,101165.59
2022-08-05T09:59:34.834Z,101161.31
2022-08-05T10:02:05.977Z,101152.09
2022-08-05T10:04:41.013Z,101156.00
2022-08-05T10:07:19.984Z,101154.69
2022-08-05T10:10:14.006Z,101155.53
2022-08-05T10:12:49.431Z,101158.38
2022-08-05T10:15:23.795Z,101155.13
2022-08-05T10:18:22.897Z,101170.38
2022-08-05T10:20:53.272Z,101171.75
2022-08-05T10:23:55.246Z,101162.66
2022-08-05T10:26:14.533Z,101171.25
2022-08-05T10:28:45.042Z,101173.78
2022-08-05T10:33:01.487Z,101181.84
2022-08-05T10:34:03.454Z,101186.94
2022-08-05T10:36:31.961Z,101182.34
2022-08-05T10:39:11.615Z,101182.66
2022-08-05T10:41:50.461Z,101172.81
2022-08-05T10:44:21.347Z,101174.25
2022-08-05T10:46:54.197Z,101175.34
2022-08-05T10:49:27.482Z,101182.59
2022-08-05T10:52:05.039Z,101195.66
2022-08-05T10:54:56.190Z,101206.75
2022-08-05T10:57:31.678Z,101205.16
2022-08-05T11:00:19.280Z,101217.81
2022-08-05T11:03:23.634Z,101211.41
2022-08-05T11:06:15.558Z,101203.16
2022-08-05T11:09:24.440Z,101222.94
2022-08-05T11:12:54.159Z,101226.94
2022-08-05T11:16:00.755Z,101220.44
2022-08-05T11:18:30.243Z,101242.44
2022-08-05T11:21:02.617Z,101248.34
2022-08-05T11:24:02.515Z,101243.59
2022-08-05T11:26:32.890Z,101250.28
2022-08-05T11:29:11.779Z,101244.34
2022-08-05T11:31:57.571Z,101236.97
2022-08-05T11:34:39.910Z,101233.84
2022-08-05T11:38:28.839Z,101264.94
2022-08-05T11:41:12.765Z,101275.63
2022-08-05T11:44:00.960Z,101257.75
2022-08-05T11:46:37.913Z,101260.72
2022-08-05T11:49:25.993Z,101261.38
2022-08-05T11:51:54.357Z,101273.25
2022-08-05T11:54:33.271Z,101282.84
2022-08-05T11:57:08.820Z,101279.28
2022-08-05T11:59:52.927Z,101278.25
2022-08-05T12:02:31.868Z,101280.00
2022-08-05T12:05:07.910Z,101298.66
2022-08-05T12:08:08.670Z,101296.47
2022-08-05T12:10:45.081Z,101295.88
2022-08-05T12:13:27.908Z,101294.31
2022-08-05T12:16:14.135Z,101287.69
2022-08-05T12:18:52.427Z,101296.09
2022-08-05T12:21:24.033Z,101294.16
2022-08-05T12:24:00.071Z,101281.63
2022-08-05T12:26:33.354Z,101289.81
2022-08-05T12:29:03.267Z,101306.97
2022-08-05T12:31:43.738Z,101309.25
2022-08-05T12:34:20.595Z,101309.41
2022-08-05T12:36:53.269Z,101300.97
2022-08-05T12:39:22.107Z,101301.06
2022-08-05T12:41:57.987Z,101299.47
2022-08-05T12:44:33.744Z,101294.84
2022-08-05T12:47:03.739Z,101305.69
2022-08-05T12:50:03.227Z,101294.81
2022-08-05T12:52:38.688Z,101288.13
2022-08-05T12:55:18.012Z,101295.91
2022-08-05T12:58:49.664Z,101297.81
2022-08-05T13:02:03.367Z,101293.88
2022-08-05T13:03:41.737Z,101305.31
2022-08-05T13:06:16.636Z,101291.00
2022-08-05T13:08:52.386Z,101297.47
2022-08-05T13:12:02.258Z,101297.13
2022-08-05T13:14:19.401Z,101297.97
2022-08-05T13:16:50.427Z,101304.50
2022-08-05T13:19:18.880Z,101311.16
2022-08-05T13:21:52.555Z,101304.56
2022-08-05T13:24:27.629Z,101314.88
2022-08-05T13:27:16.939Z,101305.31
2022-08-05T13:30:31.479Z,101311.66
2022-08-05T13:32:42.220Z,101313.63
2022-08-05T13:35:15.433Z,101319.78
2022-08-05T13:37:55.777Z,101314.94
2022-08-05T13:40:47.916Z,101311.63
2022-08-05T13:43:12.415Z,101309.75
2022-08-05T13:45:43.256Z,101291.66
2022-08-05T13:48:58.295Z,101311.06
2022-08-05T13:51:06.509Z,101308.97
2022-08-05T13:53:47.756Z,101304.94
2022-08-05T13:56:18.881Z,101298.41
2022-08-05T13:58:53.047Z,101285.47
2022-08-05T14:01:36.245Z,101286.81
2022-08-05T14:04:28.749Z,101296.66
2022-08-05T14:06:58.872Z,101297.16
2022-08-05T14:09:46.025Z,101306.66
2022-08-05T14:12:18.253Z,101305.00
2022-08-05T14:15:00.521Z,101308.97
2022-08-05T14:17:34.112Z,101305.16
2022-08-05T14:20:04.730Z,101298.97
2022-08-05T14:22:35.836Z,101313.53
2022-08-05T14:25:21.849Z,101318.59
2022-08-05T14:27:50.948Z,101310.94
2022-08-05T14:30:20.606Z,101302.59
2022-08-05T14:32:49.766Z,101261.69
2022-08-05T14:35:20.875Z,101293.47
2022-08-05T14:37:55.375Z,101297.94
2022-08-05T14:40:25.178Z,101290.88
2022-08-05T14:42:53.228Z,101284.13
2022-08-05T14:45:21.385Z,101284.06
2022-08-05T14:48:03.441Z,101289.53
2022-08-05T14:50:36.022Z,101299.91
2022-08-05T14:53:08.025Z,101293.63
2022-08-05T14:55:39.283Z,101292.13
2022-08-05T14:58:11.241Z,101288.44
2022-08-05T15:00:58.321Z,101295.19
2022-08-05T15:03:33.168Z,101294.91
2022-08-05T15:06:07.772Z,101299.53
2022-08-05T15:08:59.118Z,101300.44
2022-08-05T15:11:51.628Z,101298.66
2022-08-05T15:14:34.996Z,101294.63
2022-08-05T15:17:05.509Z,101299.06
2022-08-05T15:19:49.170Z,101302.66
2022-08-05T15:22:21.681Z,101306.91
2022-08-05T15:24:55.566Z,101301.25
2022-08-05T15:27:25.809Z,101304.09
2022-08-05T15:29:56.776Z,101299.31
2022-08-05T15:32:28.949Z,101289.88
2022-08-05T15:34:57.244Z,101310.75
2022-08-05T15:38:34.490Z,101309.91
2022-08-05T15:40:59.096Z,101332.28
2022-08-05T15:43:12.519Z,101362.78
2022-08-05T15:46:00.733Z,101388.31
2022-08-05T15:48:30.249Z,101387.50
2022-08-05T15:51:03.282Z,101386.78
2022-08-05T15:53:38.321Z,101376.56
2022-08-05T15:56:19.950Z,101379.78
2022-08-05T15:58:49.901Z,101384.72
2022-08-05T16:01:19.074Z,101383.09
2022-08-05T16:03:50.583Z,101375.44
2022-08-05T16:06:20.540Z,101364.75
2022-08-05T16:08:50.301Z,101374.63
2022-08-05T16:11:20.940Z,101358.50
2022-08-05T16:14:09.328Z,101381.72
2022-08-05T16:16:37.435Z,101383.69
2022-08-05T16:19:06.477Z,101368.59
2022-08-05T16:22:00.687Z,101380.63
2022-08-05T16:24:40.424Z,101383.97
2022-08-05T16:27:10.326Z,101382.75
2022-08-05T16:29:50.135Z,101387.28
2022-08-05T16:32:28.467Z,101396.81
2022-08-05T16:34:58.726Z,101393.06
2022-08-05T16:38:15.212Z,101394.34
2022-08-05T16:40:28.828Z,101398.97
2022-08-05T16:42:57.731Z,101408.00
2022-08-05T16:46:04.249Z,101398.88
2022-08-05T16:48:25.887Z,101413.56
2022-08-05T16:51:01.681Z,101420.31
2022-08-05T16:53:32.523Z,101413.44
2022-08-05T16:56:18.236Z,101424.84
2022-08-05T16:58:47.804Z,101427.69
2022-08-05T17:01:18.889Z,101417.09
2022-08-05T17:03:47.286Z,101421.56
2022-08-05T17:06:16.771Z,101418.47
2022-08-05T17:08:53.133Z,101431.41
2022-08-05T17:11:23.437Z,101448.88
2022-08-05T17:14:00.662Z,101434.50
2022-08-05T17:16:37.223Z,101433.63
2022-08-05T17:19:07.491Z,101437.72
2022-08-05T17:21:39.617Z,101434.41
2022-08-05T17:24:30.301Z,101455.16
2022-08-05T17:26:58.185Z,101455.75
2022-08-05T17:29:34.043Z,101455.31
2022-08-05T17:32:16.718Z,101455.91
2022-08-05T17:34:48.036Z,101461.56
2022-08-05T17:37:40.616Z,101468.25
2022-08-05T17:40:10.617Z,101475.88
2022-08-05T17:42:41.626Z,101479.00
2022-08-05T17:45:20.454Z,101482.97
2022-08-05T17:47:55.051Z,101486.84
2022-08-05T17:50:29.523Z,101497.59
2022-08-05T17:53:00.781Z,101499.78
2022-08-05T17:55:37.588Z,101495.75
2022-08-05T17:58:09.879Z,101493.28
2022-08-05T18:00:40.896Z,101507.25
2022-08-05T18:06:11.535Z,101493.84
2022-08-05T18:08:44.615Z,101512.59
2022-08-05T18:11:24.199Z,101512.28
2022-08-05T18:14:04.347Z,101515.34
2022-08-05T18:16:35.649Z,101514.94
2022-08-05T18:19:22.792Z,101527.63
2022-08-05T18:22:08.709Z,101534.47
2022-08-05T18:24:39.944Z,101515.41
2022-08-05T18:27:12.880Z,101531.25
2022-08-05T18:29:51.983Z,101527.00
2022-08-05T18:32:28.055Z,101533.78
2022-08-05T18:34:59.411Z,101535.13
2022-08-05T18:37:34.415Z,101545.78
2022-08-05T18:40:57.580Z,101550.75
2022-08-05T18:42:57.815Z,101551.56
2022-08-05T18:45:25.966Z,101558.63
2022-08-05T18:48:11.316Z,101563.88
2022-08-05T18:52:02.506Z,101564.94
2022-08-05T18:53:50.384Z,101568.81
2022-08-05T18:56:21.794Z,101563.72
2022-08-05T18:58:59.804Z,101570.00
2022-08-05T19:01:33.413Z,101582.81
2022-08-05T19:04:24.092Z,101579.75
2022-08-05T19:06:53.949Z,101587.00
2022-08-05T19:09:22.587Z,101591.63
2022-08-05T19:12:00.152Z,101589.28
2022-08-05T19:14:44.964Z,101593.88
2022-08-05T19:17:18.370Z,101603.88
2022-08-05T19:19:48.706Z,101613.94
2022-08-05T19:22:18.450Z,101615.00
2022-08-05T19:24:56.153Z,101617.00
2022-08-05T19:27:30.527Z,101627.91
2022-08-05T19:29:59.263Z,101625.44
2022-08-05T19:32:27.907Z,101634.53
2022-08-05T19:34:56.570Z,101635.56
2022-08-05T19:37:34.893Z,101640.09
2022-08-05T19:40:16.187Z,101640.28
2022-08-05T19:43:00.784Z,101647.66
2022-08-05T19:45:36.934Z,101657.72
2022-08-05T19:48:06.332Z,101658.59
2022-08-05T19:50:34.969Z,101655.25
2022-08-05T19:53:09.433Z,101666.31
2022-08-05T19:56:14.992Z,101668.19
2022-08-05T19:58:28.409Z,101666.53
2022-08-05T20:00:57.981Z,101666.03
2022-08-05T20:03:27.345Z,101672.28
2022-08-05T20:06:15.539Z,101668.81
2022-08-05T20:08:47.579Z,101681.31
2022-08-05T20:11:17.897Z,101676.13
2022-08-05T20:13:58.172Z,101681.53
2022-08-05T20:16:27.248Z,101681.72
2022-08-05T20:18:55.826Z,101693.47
2022-08-05T20:21:25.463Z,101690.75
2022-08-05T20:23:54.870Z,101691.97
2022-08-05T20:26:25.712Z,101693.81
2022-08-05T20:28:56.243Z,101697.41
2022-08-05T20:31:36.913Z,101695.81
2022-08-05T20:34:11.599Z,101699.31
2022-08-05T20:36:43.414Z,101702.13
2022-08-05T20:39:16.343Z,101705.94
2022-08-05T20:41:46.605Z,101708.63
2022-08-05T20:44:29.731Z,101710.50
2022-08-05T20:46:59.684Z,101712.28
2022-08-05T20:49:27.797Z,101718.66
2022-08-05T20:51:57.456Z,101723.28
2022-08-05T20:54:59.805Z,101719.78
2022-08-05T20:57:42.173Z,101728.75
2022-08-05T21:00:21.009Z,101725.59
2022-08-05T21:03:00.161Z,101730.81
2022-08-05T21:05:48.326Z,101733.53
2022-08-05T21:08:17.971Z,101729.19
2022-08-05T21:10:48.872Z,101729.25
2022-08-05T21:13:26.578Z,101738.28
2022-08-05T21:16:06.294Z,101741.06
2022-08-05T21:18:34.590Z,101744.56
2022-08-05T21:21:03.974Z,101741.94
2022-08-05T21:23:37.204Z,101747.38
2022-08-05T21:26:14.482Z,101752.75
2022-08-05T21:28:47.620Z,101754.50
2022-08-05T21:31:18.813Z,101756.44
2022-08-05T21:33:47.901Z,101760.03
2022-08-05T21:36:27.444Z,101764.63
2022-08-05T21:38:58.533Z,101768.13
2022-08-05T21:41:32.946Z,101768.94
2022-08-05T21:44:04.412Z,101765.69
2022-08-05T21:46:34.309Z,101758.63
2022-08-05T21:49:07.418Z,101761.22
2022-08-05T21:52:21.847Z,101757.81
2022-08-05T21:54:30.930Z,101761.41
2022-08-05T21:57:31.312Z,101768.50
2022-08-05T22:00:04.001Z,101764.22
2022-08-05T22:02:34.835Z,101766.97
2022-08-05T22:05:04.506Z,101767.16
2022-08-05T22:07:39.757Z,101765.38
2022-08-05T22:10:25.602Z,101768.81
2022-08-05T22:12:58.741Z,101769.75
2022-08-05T22:16:00.724Z,101772.41
2022-08-05T22:18:16.007Z,101774.22
2022-08-05T22:20:47.738Z,101786.69
2022-08-05T22:24:02.452Z,101786.81
2022-08-05T22:26:43.048Z,101788.63
2022-08-05T22:29:26.836Z,101792.19
2022-08-05T22:32:02.890Z,101790.31
2022-08-05T22:34:31.197Z,101785.97
2022-08-05T22:37:00.521Z,101780.69
2022-08-05T22:39:33.870Z,101791.41
2022-08-05T22:42:09.493Z,101797.75
2022-08-05T22:44:42.537Z,101799.53
2022-08-05T22:47:11.225Z,101796.00
2022-08-05T22:50:21.721Z,101791.66
2022-08-05T22:52:32.703Z,101790.88
2022-08-05T22:55:04.394Z,101800.88
2022-08-05T22:57:49.122Z,101805.38
2022-08-05T23:00:20.965Z,101798.38
2022-08-05T23:02:50.360Z,101805.63
2022-08-05T23:05:19.207Z,101802.03
2022-08-05T23:07:51.163Z,101800.22
2022-08-05T23:10:19.935Z,101807.44
2022-08-05T23:12:51.335Z,101811.09
2022-08-05T23:15:21.291Z,101803.06
2022-08-05T23:18:01.134Z,101812.88
2022-08-05T23:20:32.331Z,101818.16
2022-08-05T23:23:03.628Z,101813.72
2022-08-05T23:25:53.094Z,101818.13
2022-08-05T23:28:23.944Z,101823.59
2022-08-05T23:30:56.358Z,101822.69
2022-08-05T23:34:04.199Z,101837.81
2022-08-05T23:36:40.125Z,101843.25
2022-08-05T23:39:17.339Z,101836.22
2022-08-05T23:41:52.225Z,101844.25
2022-08-05T23:44:24.963Z,101840.06
2022-08-05T23:46:57.631Z,101849.00
2022-08-05T23:49:35.673Z,101853.44
2022-08-05T23:52:25.341Z,101850.00
2022-08-05T23:54:54.381Z,101853.72
2022-08-05T23:57:22.538Z,101861.69
